sensor_id;sensor_type;location;lat;lon;timestamp;P1;durP1;ratioP1;P2;durP2;ratioP2
42158;SDS011;27822;44.430;10.790;2022-07-23T00:01:38;10.02;;;3.58;;
42158;SDS011;27822;44.430;10.790;2022-07-23T00:04:06;7.88;;;3.75;;
42158;SDS011;27822;44.430;10.790;2022-07-23T00:06:32;7.25;;;3.47;;
42158;SDS011;27822;44.430;10.790;2022-07-23T00:08:58;7.85;;;3.53;;
42158;SDS011;27822;44.430;10.790;2022-07-23T00:11:23;7.75;;;3.47;;
42158;SDS011;27822;44.430;10.790;2022-07-23T00:13:49;11.73;;;3.78;;
42158;SDS011;27822;44.430;10.790;2022-07-23T00:16:15;11.48;;;3.45;;
42158;SDS011;27822;44.430;10.790;2022-07-23T00:18:41;8.43;;;3.47;;
42158;SDS011;27822;44.430;10.790;2022-07-23T00:21:07;6.95;;;4.25;;
42158;SDS011;27822;44.430;10.790;2022-07-23T00:23:33;6.25;;;3.10;;
42158;SDS011;27822;44.430;10.790;2022-07-23T00:25:58;7.38;;;3.88;;
42158;SDS011;27822;44.430;10.790;2022-07-23T00:28:24;6.90;;;3.30;;
42158;SDS011;27822;44.430;10.790;2022-07-23T00:30:50;15.02;;;3.38;;
42158;SDS011;27822;44.430;10.790;2022-07-23T00:33:16;8.30;;;3.20;;
42158;SDS011;27822;44.430;10.790;2022-07-23T00:35:42;10.73;;;2.85;;
42158;SDS011;27822;44.430;10.790;2022-07-23T00:38:08;11.88;;;3.05;;
42158;SDS011;27822;44.430;10.790;2022-07-23T00:40:35;9.05;;;3.17;;
42158;SDS011;27822;44.430;10.790;2022-07-23T00:43:02;8.48;;;3.42;;
42158;SDS011;27822;44.430;10.790;2022-07-23T00:45:28;6.22;;;3.00;;
42158;SDS011;27822;44.430;10.790;2022-07-23T00:47:55;9.15;;;3.90;;
42158;SDS011;27822;44.430;10.790;2022-07-23T00:50:21;11.52;;;3.40;;
42158;SDS011;27822;44.430;10.790;2022-07-23T00:52:52;10.63;;;3.00;;
42158;SDS011;27822;44.430;10.790;2022-07-23T00:55:19;9.18;;;3.17;;
42158;SDS011;27822;44.430;10.790;2022-07-23T00:57:45;11.07;;;3.10;;
42158;SDS011;27822;44.430;10.790;2022-07-23T01:00:13;8.18;;;3.13;;
42158;SDS011;27822;44.430;10.790;2022-07-23T01:02:40;6.15;;;2.70;;
42158;SDS011;27822;44.430;10.790;2022-07-23T01:05:07;6.60;;;2.92;;
42158;SDS011;27822;44.430;10.790;2022-07-23T01:07:33;9.45;;;3.10;;
42158;SDS011;27822;44.430;10.790;2022-07-23T01:09:59;6.13;;;3.33;;
42158;SDS011;27822;44.430;10.790;2022-07-23T01:12:25;7.35;;;2.95;;
42158;SDS011;27822;44.430;10.790;2022-07-23T01:14:58;9.32;;;3.13;;
42158;SDS011;27822;44.430;10.790;2022-07-23T01:17:25;5.85;;;3.13;;
42158;SDS011;27822;44.430;10.790;2022-07-23T01:19:52;7.13;;;2.95;;
42158;SDS011;27822;44.430;10.790;2022-07-23T01:22:18;5.60;;;3.10;;
42158;SDS011;27822;44.430;10.790;2022-07-23T01:24:45;7.72;;;2.88;;
42158;SDS011;27822;44.430;10.790;2022-07-23T01:27:11;7.13;;;3.05;;
42158;SDS011;27822;44.430;10.790;2022-07-23T01:29:38;12.38;;;3.45;;
42158;SDS011;27822;44.430;10.790;2022-07-23T01:32:04;9.63;;;3.17;;
42158;SDS011;27822;44.430;10.790;2022-07-23T01:34:31;7.68;;;3.10;;
42158;SDS011;27822;44.430;10.790;2022-07-23T01:36:56;7.63;;;3.33;;
42158;SDS011;27822;44.430;10.790;2022-07-23T01:39:22;8.20;;;3.83;;
42158;SDS011;27822;44.430;10.790;2022-07-23T01:41:48;11.27;;;4.22;;
42158;SDS011;27822;44.430;10.790;2022-07-23T01:44:14;8.25;;;3.22;;
42158;SDS011;27822;44.430;10.790;2022-07-23T01:46:40;8.05;;;4.03;;
42158;SDS011;27822;44.430;10.790;2022-07-23T01:49:06;6.22;;;3.00;;
42158;SDS011;27822;44.430;10.790;2022-07-23T01:51:32;4.70;;;2.85;;
42158;SDS011;27822;44.430;10.790;2022-07-23T01:53:57;5.93;;;3.50;;
42158;SDS011;27822;44.430;10.790;2022-07-23T01:56:23;8.35;;;3.25;;
42158;SDS011;27822;44.430;10.790;2022-07-23T01:58:49;11.98;;;3.78;;
42158;SDS011;27822;44.430;10.790;2022-07-23T02:01:15;11.73;;;4.18;;
42158;SDS011;27822;44.430;10.790;2022-07-23T02:03:41;7.05;;;3.35;;
42158;SDS011;27822;44.430;10.790;2022-07-23T02:06:07;6.40;;;2.95;;
42158;SDS011;27822;44.430;10.790;2022-07-23T02:08:33;7.80;;;3.58;;
42158;SDS011;27822;44.430;10.790;2022-07-23T02:10:58;8.68;;;3.38;;
42158;SDS011;27822;44.430;10.790;2022-07-23T02:13:24;9.88;;;3.53;;
42158;SDS011;27822;44.430;10.790;2022-07-23T02:15:50;8.10;;;3.13;;
42158;SDS011;27822;44.430;10.790;2022-07-23T02:18:16;6.00;;;3.35;;
42158;SDS011;27822;44.430;10.790;2022-07-23T02:20:51;6.78;;;3.65;;
42158;SDS011;27822;44.430;10.790;2022-07-23T02:23:26;12.70;;;3.72;;
42158;SDS011;27822;44.430;10.790;2022-07-23T02:25:58;9.60;;;3.40;;
42158;SDS011;27822;44.430;10.790;2022-07-23T02:28:24;7.07;;;3.20;;
42158;SDS011;27822;44.430;10.790;2022-07-23T02:30:50;7.93;;;3.53;;
42158;SDS011;27822;44.430;10.790;2022-07-23T02:33:16;5.88;;;3.47;;
42158;SDS011;27822;44.430;10.790;2022-07-23T02:35:41;7.45;;;3.20;;
42158;SDS011;27822;44.430;10.790;2022-07-23T02:38:07;9.25;;;3.47;;
42158;SDS011;27822;44.430;10.790;2022-07-23T02:40:33;7.78;;;3.35;;
42158;SDS011;27822;44.430;10.790;2022-07-23T02:42:59;8.35;;;3.92;;
42158;SDS011;27822;44.430;10.790;2022-07-23T02:45:24;10.68;;;4.28;;
42158;SDS011;27822;44.430;10.790;2022-07-23T02:47:50;10.73;;;3.60;;
42158;SDS011;27822;44.430;10.790;2022-07-23T02:50:16;9.95;;;3.10;;
42158;SDS011;27822;44.430;10.790;2022-07-23T02:53:05;7.43;;;3.10;;
42158;SDS011;27822;44.430;10.790;2022-07-23T02:55:39;13.98;;;3.53;;
42158;SDS011;27822;44.430;10.790;2022-07-23T02:58:05;13.90;;;3.50;;
42158;SDS011;27822;44.430;10.790;2022-07-23T03:00:31;6.80;;;3.60;;
42158;SDS011;27822;44.430;10.790;2022-07-23T03:02:56;7.85;;;3.85;;
42158;SDS011;27822;44.430;10.790;2022-07-23T03:05:22;8.93;;;3.08;;
42158;SDS011;27822;44.430;10.790;2022-07-23T03:07:48;8.82;;;3.20;;
42158;SDS011;27822;44.430;10.790;2022-07-23T03:10:14;7.30;;;3.30;;
42158;SDS011;27822;44.430;10.790;2022-07-23T03:12:39;8.93;;;4.00;;
42158;SDS011;27822;44.430;10.790;2022-07-23T03:15:05;9.73;;;3.55;;
42158;SDS011;27822;44.430;10.790;2022-07-23T03:17:32;6.60;;;3.40;;
42158;SDS011;27822;44.430;10.790;2022-07-23T03:19:58;8.20;;;3.42;;
42158;SDS011;27822;44.430;10.790;2022-07-23T03:22:36;9.15;;;3.67;;
42158;SDS011;27822;44.430;10.790;2022-07-23T03:25:14;6.32;;;3.67;;
42158;SDS011;27822;44.430;10.790;2022-07-23T03:27:44;12.38;;;3.88;;
42158;SDS011;27822;44.430;10.790;2022-07-23T03:30:10;8.15;;;3.47;;
42158;SDS011;27822;44.430;10.790;2022-07-23T03:32:37;6.32;;;3.15;;
42158;SDS011;27822;44.430;10.790;2022-07-23T03:35:03;9.88;;;3.60;;
42158;SDS011;27822;44.430;10.790;2022-07-23T03:37:29;8.70;;;3.60;;
42158;SDS011;27822;44.430;10.790;2022-07-23T03:39:55;6.80;;;3.90;;
42158;SDS011;27822;44.430;10.790;2022-07-23T03:42:21;10.88;;;3.72;;
42158;SDS011;27822;44.430;10.790;2022-07-23T03:44:47;6.57;;;3.75;;
42158;SDS011;27822;44.430;10.790;2022-07-23T03:47:13;7.60;;;3.40;;
42158;SDS011;27822;44.430;10.790;2022-07-23T03:49:39;8.43;;;3.67;;
42158;SDS011;27822;44.430;10.790;2022-07-23T03:52:05;10.60;;;3.65;;
42158;SDS011;27822;44.430;10.790;2022-07-23T03:54:30;5.68;;;3.45;;
42158;SDS011;27822;44.430;10.790;2022-07-23T03:56:56;7.70;;;3.53;;
42158;SDS011;27822;44.430;10.790;2022-07-23T03:59:22;6.53;;;3.92;;
42158;SDS011;27822;44.430;10.790;2022-07-23T04:01:48;9.98;;;4.20;;
42158;SDS011;27822;44.430;10.790;2022-07-23T04:04:13;10.70;;;4.10;;
42158;SDS011;27822;44.430;10.790;2022-07-23T04:06:39;8.55;;;3.80;;
42158;SDS011;27822;44.430;10.790;2022-07-23T04:09:05;6.05;;;3.88;;
42158;SDS011;27822;44.430;10.790;2022-07-23T04:11:31;8.13;;;4.15;;
42158;SDS011;27822;44.430;10.790;2022-07-23T04:13:57;9.48;;;3.70;;
42158;SDS011;27822;44.430;10.790;2022-07-23T04:16:22;4.97;;;3.30;;
42158;SDS011;27822;44.430;10.790;2022-07-23T04:18:48;11.40;;;3.60;;
42158;SDS011;27822;44.430;10.790;2022-07-23T04:21:14;10.68;;;3.58;;
42158;SDS011;27822;44.430;10.790;2022-07-23T04:23:39;7.75;;;3.42;;
42158;SDS011;27822;44.430;10.790;2022-07-23T04:26:08;6.55;;;3.38;;
42158;SDS011;27822;44.430;10.790;2022-07-23T04:28:41;8.77;;;3.65;;
42158;SDS011;27822;44.430;10.790;2022-07-23T04:31:11;5.00;;;3.58;;
42158;SDS011;27822;44.430;10.790;2022-07-23T04:33:38;9.45;;;3.40;;
42158;SDS011;27822;44.430;10.790;2022-07-23T04:36:05;7.18;;;3.95;;
42158;SDS011;27822;44.430;10.790;2022-07-23T04:38:34;9.45;;;4.88;;
42158;SDS011;27822;44.430;10.790;2022-07-23T04:41:01;5.50;;;3.63;;
42158;SDS011;27822;44.430;10.790;2022-07-23T04:43:28;6.85;;;3.88;;
42158;SDS011;27822;44.430;10.790;2022-07-23T04:45:55;7.50;;;3.67;;
42158;SDS011;27822;44.430;10.790;2022-07-23T04:48:21;7.43;;;3.42;;
42158;SDS011;27822;44.430;10.790;2022-07-23T04:50:51;5.45;;;3.15;;
42158;SDS011;27822;44.430;10.790;2022-07-23T04:53:23;6.75;;;3.50;;
42158;SDS011;27822;44.430;10.790;2022-07-23T04:55:55;5.90;;;3.50;;
42158;SDS011;27822;44.430;10.790;2022-07-23T04:58:25;6.57;;;3.22;;
42158;SDS011;27822;44.430;10.790;2022-07-23T05:00:52;6.20;;;3.33;;
42158;SDS011;27822;44.430;10.790;2022-07-23T05:03:19;9.93;;;3.50;;
42158;SDS011;27822;44.430;10.790;2022-07-23T05:05:45;10.98;;;3.33;;
42158;SDS011;27822;44.430;10.790;2022-07-23T05:08:15;5.35;;;3.13;;
42158;SDS011;27822;44.430;10.790;2022-07-23T05:10:42;9.63;;;3.30;;
42158;SDS011;27822;44.430;10.790;2022-07-23T05:13:09;6.05;;;3.00;;
42158;SDS011;27822;44.430;10.790;2022-07-23T05:15:35;5.40;;;3.00;;
42158;SDS011;27822;44.430;10.790;2022-07-23T05:18:05;4.47;;;3.13;;
42158;SDS011;27822;44.430;10.790;2022-07-23T05:20:40;6.20;;;3.33;;
42158;SDS011;27822;44.430;10.790;2022-07-23T05:23:16;9.85;;;3.00;;
42158;SDS011;27822;44.430;10.790;2022-07-23T05:25:43;8.32;;;2.85;;
42158;SDS011;27822;44.430;10.790;2022-07-23T05:28:19;9.50;;;3.40;;
42158;SDS011;27822;44.430;10.790;2022-07-23T05:30:56;5.75;;;3.30;;
42158;SDS011;27822;44.430;10.790;2022-07-23T05:33:25;4.72;;;2.40;;
42158;SDS011;27822;44.430;10.790;2022-07-23T05:35:59;6.25;;;2.97;;
42158;SDS011;27822;44.430;10.790;2022-07-23T05:38:30;5.10;;;2.60;;
42158;SDS011;27822;44.430;10.790;2022-07-23T05:40:58;5.20;;;2.90;;
42158;SDS011;27822;44.430;10.790;2022-07-23T05:43:25;7.43;;;3.53;;
42158;SDS011;27822;44.430;10.790;2022-07-23T05:45:55;5.35;;;2.72;;
42158;SDS011;27822;44.430;10.790;2022-07-23T05:48:22;10.38;;;3.35;;
42158;SDS011;27822;44.430;10.790;2022-07-23T05:50:49;6.82;;;2.95;;
42158;SDS011;27822;44.430;10.790;2022-07-23T05:53:22;5.13;;;3.03;;
42158;SDS011;27822;44.430;10.790;2022-07-23T05:55:49;11.18;;;3.40;;
42158;SDS011;27822;44.430;10.790;2022-07-23T05:58:18;7.10;;;3.50;;
42158;SDS011;27822;44.430;10.790;2022-07-23T06:00:44;10.40;;;3.30;;
42158;SDS011;27822;44.430;10.790;2022-07-23T06:03:11;5.40;;;3.30;;
42158;SDS011;27822;44.430;10.790;2022-07-23T06:05:38;6.65;;;3.53;;
42158;SDS011;27822;44.430;10.790;2022-07-23T06:08:05;5.35;;;3.42;;
42158;SDS011;27822;44.430;10.790;2022-07-23T06:10:32;9.57;;;3.25;;
42158;SDS011;27822;44.430;10.790;2022-07-23T06:13:01;10.32;;;3.92;;
42158;SDS011;27822;44.430;10.790;2022-07-23T06:15:28;7.43;;;3.85;;
42158;SDS011;27822;44.430;10.790;2022-07-23T06:17:58;6.07;;;3.47;;
42158;SDS011;27822;44.430;10.790;2022-07-23T06:20:30;6.72;;;3.50;;
42158;SDS011;27822;44.430;10.790;2022-07-23T06:23:07;5.55;;;3.50;;
42158;SDS011;27822;44.430;10.790;2022-07-23T06:25:34;6.47;;;3.55;;
42158;SDS011;27822;44.430;10.790;2022-07-23T06:28:01;9.02;;;3.70;;
42158;SDS011;27822;44.430;10.790;2022-07-23T06:30:27;8.85;;;4.10;;
42158;SDS011;27822;44.430;10.790;2022-07-23T06:32:54;6.38;;;3.80;;
42158;SDS011;27822;44.430;10.790;2022-07-23T06:35:21;6.50;;;3.35;;
42158;SDS011;27822;44.430;10.790;2022-07-23T06:37:51;10.43;;;3.38;;
42158;SDS011;27822;44.430;10.790;2022-07-23T06:40:24;7.80;;;3.75;;
42158;SDS011;27822;44.430;10.790;2022-07-23T06:42:51;7.00;;;3.35;;
42158;SDS011;27822;44.430;10.790;2022-07-23T06:45:21;8.05;;;3.15;;
42158;SDS011;27822;44.430;10.790;2022-07-23T06:47:59;6.28;;;3.65;;
42158;SDS011;27822;44.430;10.790;2022-07-23T06:50:28;7.78;;;3.92;;
42158;SDS011;27822;44.430;10.790;2022-07-23T06:52:55;7.22;;;3.65;;
42158;SDS011;27822;44.430;10.790;2022-07-23T06:55:25;5.70;;;3.53;;
42158;SDS011;27822;44.430;10.790;2022-07-23T06:57:51;7.75;;;3.60;;
42158;SDS011;27822;44.430;10.790;2022-07-23T07:00:17;4.55;;;3.40;;
42158;SDS011;27822;44.430;10.790;2022-07-23T07:02:47;5.50;;;3.50;;
42158;SDS011;27822;44.430;10.790;2022-07-23T07:05:13;6.45;;;3.55;;
42158;SDS011;27822;44.430;10.790;2022-07-23T07:07:42;8.38;;;3.05;;
42158;SDS011;27822;44.430;10.790;2022-07-23T07:12:38;11.38;;;4.07;;
42158;SDS011;27822;44.430;10.790;2022-07-23T07:15:06;8.80;;;3.78;;
42158;SDS011;27822;44.430;10.790;2022-07-23T07:17:38;6.28;;;3.60;;
42158;SDS011;27822;44.430;10.790;2022-07-23T07:20:05;6.43;;;3.97;;
42158;SDS011;27822;44.430;10.790;2022-07-23T07:22:35;10.35;;;3.92;;
42158;SDS011;27822;44.430;10.790;2022-07-23T07:25:05;8.07;;;3.63;;
42158;SDS011;27822;44.430;10.790;2022-07-23T07:27:32;9.15;;;3.55;;
42158;SDS011;27822;44.430;10.790;2022-07-23T07:30:07;14.55;;;3.58;;
42158;SDS011;27822;44.430;10.790;2022-07-23T07:32:34;5.13;;;3.30;;
42158;SDS011;27822;44.430;10.790;2022-07-23T07:35:04;9.52;;;3.45;;
42158;SDS011;27822;44.430;10.790;2022-07-23T07:37:32;8.45;;;3.67;;
42158;SDS011;27822;44.430;10.790;2022-07-23T07:40:02;7.70;;;3.58;;
42158;SDS011;27822;44.430;10.790;2022-07-23T07:42:29;7.22;;;3.40;;
42158;SDS011;27822;44.430;10.790;2022-07-23T07:44:57;6.93;;;3.75;;
42158;SDS011;27822;44.430;10.790;2022-07-23T07:47:24;7.88;;;3.70;;
42158;SDS011;27822;44.430;10.790;2022-07-23T07:49:54;9.68;;;3.53;;
42158;SDS011;27822;44.430;10.790;2022-07-23T07:52:24;10.13;;;4.15;;
42158;SDS011;27822;44.430;10.790;2022-07-23T07:54:51;11.45;;;3.80;;
42158;SDS011;27822;44.430;10.790;2022-07-23T07:57:17;5.93;;;3.60;;
42158;SDS011;27822;44.430;10.790;2022-07-23T07:59:47;5.32;;;3.25;;
42158;SDS011;27822;44.430;10.790;2022-07-23T08:02:13;9.10;;;4.03;;
42158;SDS011;27822;44.430;10.790;2022-07-23T08:04:40;10.65;;;3.22;;
42158;SDS011;27822;44.430;10.790;2022-07-23T08:07:06;9.93;;;3.60;;
42158;SDS011;27822;44.430;10.790;2022-07-23T08:09:32;6.40;;;3.50;;
42158;SDS011;27822;44.430;10.790;2022-07-23T08:11:58;6.30;;;3.90;;
42158;SDS011;27822;44.430;10.790;2022-07-23T08:14:24;10.70;;;3.95;;
42158;SDS011;27822;44.430;10.790;2022-07-23T08:16:50;8.75;;;3.80;;
42158;SDS011;27822;44.430;10.790;2022-07-23T08:19:16;11.15;;;3.85;;
42158;SDS011;27822;44.430;10.790;2022-07-23T08:21:42;7.95;;;3.53;;
42158;SDS011;27822;44.430;10.790;2022-07-23T08:24:08;8.93;;;3.75;;
42158;SDS011;27822;44.430;10.790;2022-07-23T08:26:35;10.45;;;4.05;;
42158;SDS011;27822;44.430;10.790;2022-07-23T08:29:01;8.82;;;3.90;;
42158;SDS011;27822;44.430;10.790;2022-07-23T08:31:27;15.30;;;4.57;;
42158;SDS011;27822;44.430;10.790;2022-07-23T08:33:53;11.60;;;3.97;;
42158;SDS011;27822;44.430;10.790;2022-07-23T08:36:20;9.18;;;4.05;;
42158;SDS011;27822;44.430;10.790;2022-07-23T08:38:46;19.90;;;4.63;;
42158;SDS011;27822;44.430;10.790;2022-07-23T08:41:13;12.10;;;4.35;;
42158;SDS011;27822;44.430;10.790;2022-07-23T08:43:39;7.38;;;4.00;;
42158;SDS011;27822;44.430;10.790;2022-07-23T08:46:05;9.95;;;4.20;;
42158;SDS011;27822;44.430;10.790;2022-07-23T08:48:32;13.48;;;4.57;;
42158;SDS011;27822;44.430;10.790;2022-07-23T08:51:00;12.90;;;5.05;;
42158;SDS011;27822;44.430;10.790;2022-07-23T08:53:28;9.40;;;4.00;;
42158;SDS011;27822;44.430;10.790;2022-07-23T08:55:55;9.85;;;4.35;;
42158;SDS011;27822;44.430;10.790;2022-07-23T08:58:22;9.68;;;4.45;;
42158;SDS011;27822;44.430;10.790;2022-07-23T09:00:48;12.20;;;4.68;;
42158;SDS011;27822;44.430;10.790;2022-07-23T09:03:15;12.23;;;4.25;;
42158;SDS011;27822;44.430;10.790;2022-07-23T09:05:43;7.15;;;3.97;;
42158;SDS011;27822;44.430;10.790;2022-07-23T09:08:11;8.88;;;4.72;;
42158;SDS011;27822;44.430;10.790;2022-07-23T09:15:50;8.65;;;4.38;;
42158;SDS011;27822;44.430;10.790;2022-07-23T09:18:16;10.77;;;3.78;;
42158;SDS011;27822;44.430;10.790;2022-07-23T09:20:45;12.23;;;4.00;;
42158;SDS011;27822;44.430;10.790;2022-07-23T09:23:11;14.48;;;4.15;;
42158;SDS011;27822;44.430;10.790;2022-07-23T09:25:37;14.48;;;4.53;;
42158;SDS011;27822;44.430;10.790;2022-07-23T09:28:03;16.63;;;4.28;;
42158;SDS011;27822;44.430;10.790;2022-07-23T09:30:30;12.25;;;4.10;;
42158;SDS011;27822;44.430;10.790;2022-07-23T09:33:06;8.93;;;4.35;;
42158;SDS011;27822;44.430;10.790;2022-07-23T09:38:20;15.73;;;4.50;;
42158;SDS011;27822;44.430;10.790;2022-07-23T09:41:07;10.00;;;4.22;;
42158;SDS011;27822;44.430;10.790;2022-07-23T09:43:34;8.43;;;3.95;;
42158;SDS011;27822;44.430;10.790;2022-07-23T09:46:19;11.05;;;4.85;;
42158;SDS011;27822;44.430;10.790;2022-07-23T09:48:50;10.27;;;4.28;;
42158;SDS011;27822;44.430;10.790;2022-07-23T09:51:17;8.45;;;4.10;;
42158;SDS011;27822;44.430;10.790;2022-07-23T09:53:49;8.05;;;4.22;;
42158;SDS011;27822;44.430;10.790;2022-07-23T09:56:15;21.88;;;4.45;;
42158;SDS011;27822;44.430;10.790;2022-07-23T09:58:42;14.57;;;4.18;;
42158;SDS011;27822;44.430;10.790;2022-07-23T10:01:27;10.23;;;4.43;;
42158;SDS011;27822;44.430;10.790;2022-07-23T10:03:53;10.93;;;4.53;;
42158;SDS011;27822;44.430;10.790;2022-07-23T10:06:19;7.82;;;4.45;;
42158;SDS011;27822;44.430;10.790;2022-07-23T10:08:47;11.07;;;4.05;;
42158;SDS011;27822;44.430;10.790;2022-07-23T10:11:15;7.68;;;4.40;;
42158;SDS011;27822;44.430;10.790;2022-07-23T10:13:42;13.18;;;4.30;;
42158;SDS011;27822;44.430;10.790;2022-07-23T10:16:19;11.25;;;4.07;;
42158;SDS011;27822;44.430;10.790;2022-07-23T10:18:46;8.95;;;4.43;;
42158;SDS011;27822;44.430;10.790;2022-07-23T10:21:13;6.68;;;4.30;;
42158;SDS011;27822;44.430;10.790;2022-07-23T10:36:01;8.20;;;4.15;;
42158;SDS011;27822;44.430;10.790;2022-07-23T10:38:49;9.50;;;4.47;;
42158;SDS011;27822;44.430;10.790;2022-07-23T10:41:38;6.30;;;4.13;;
42158;SDS011;27822;44.430;10.790;2022-07-23T10:44:18;9.95;;;4.53;;
42158;SDS011;27822;44.430;10.790;2022-07-23T10:49:43;21.02;;;4.95;;
42158;SDS011;27822;44.430;10.790;2022-07-23T10:52:26;8.40;;;5.00;;
42158;SDS011;27822;44.430;10.790;2022-07-23T10:54:53;7.07;;;4.32;;
42158;SDS011;27822;44.430;10.790;2022-07-23T10:57:46;14.65;;;4.32;;
42158;SDS011;27822;44.430;10.790;2022-07-23T11:00:14;6.47;;;4.43;;
42158;SDS011;27822;44.430;10.790;2022-07-23T11:02:44;10.52;;;4.43;;
42158;SDS011;27822;44.430;10.790;2022-07-23T11:05:39;10.32;;;4.70;;
42158;SDS011;27822;44.430;10.790;2022-07-23T11:08:14;7.88;;;4.43;;
42158;SDS011;27822;44.430;10.790;2022-07-23T11:10:47;10.18;;;4.05;;
42158;SDS011;27822;44.430;10.790;2022-07-23T11:31:57;8.75;;;4.30;;
42158;SDS011;27822;44.430;10.790;2022-07-23T11:34:32;13.45;;;5.03;;
42158;SDS011;27822;44.430;10.790;2022-07-23T11:36:59;8.75;;;4.38;;
42158;SDS011;27822;44.430;10.790;2022-07-23T11:39:26;9.00;;;4.32;;
42158;SDS011;27822;44.430;10.790;2022-07-23T11:41:54;16.40;;;4.67;;
42158;SDS011;27822;44.430;10.790;2022-07-23T11:44:25;18.10;;;4.57;;
42158;SDS011;27822;44.430;10.790;2022-07-23T11:47:02;11.13;;;4.70;;
42158;SDS011;27822;44.430;10.790;2022-07-23T11:49:29;10.00;;;4.70;;
42158;SDS011;27822;44.430;10.790;2022-07-23T11:52:04;8.18;;;4.32;;
42158;SDS011;27822;44.430;10.790;2022-07-23T11:54:32;9.50;;;5.38;;
42158;SDS011;27822;44.430;10.790;2022-07-23T11:56:59;12.07;;;4.07;;
42158;SDS011;27822;44.430;10.790;2022-07-23T11:59:26;7.00;;;4.22;;
42158;SDS011;27822;44.430;10.790;2022-07-23T12:02:03;11.45;;;5.00;;
42158;SDS011;27822;44.430;10.790;2022-07-23T12:04:40;12.18;;;4.57;;
42158;SDS011;27822;44.430;10.790;2022-07-23T12:07:26;12.43;;;4.20;;
42158;SDS011;27822;44.430;10.790;2022-07-23T12:09:54;8.52;;;4.63;;
42158;SDS011;27822;44.430;10.790;2022-07-23T12:12:21;10.63;;;4.45;;
42158;SDS011;27822;44.430;10.790;2022-07-23T12:14:55;7.85;;;4.72;;
42158;SDS011;27822;44.430;10.790;2022-07-23T12:17:27;7.95;;;4.05;;
42158;SDS011;27822;44.430;10.790;2022-07-23T12:19:55;9.63;;;4.50;;
42158;SDS011;27822;44.430;10.790;2022-07-23T12:22:23;7.72;;;4.20;;
42158;SDS011;27822;44.430;10.790;2022-07-23T12:24:58;10.15;;;5.18;;
42158;SDS011;27822;44.430;10.790;2022-07-23T12:27:26;11.00;;;4.68;;
42158;SDS011;27822;44.430;10.790;2022-07-23T12:29:52;9.48;;;4.85;;
42158;SDS011;27822;44.430;10.790;2022-07-23T12:32:22;8.00;;;4.88;;
42158;SDS011;27822;44.430;10.790;2022-07-23T12:35:02;11.65;;;4.63;;
42158;SDS011;27822;44.430;10.790;2022-07-23T12:37:33;7.82;;;4.72;;
42158;SDS011;27822;44.430;10.790;2022-07-23T12:42:57;13.15;;;4.85;;
42158;SDS011;27822;44.430;10.790;2022-07-23T12:45:28;9.52;;;4.53;;
42158;SDS011;27822;44.430;10.790;2022-07-23T12:48:07;9.93;;;4.40;;
42158;SDS011;27822;44.430;10.790;2022-07-23T12:53:25;8.48;;;4.57;;
42158;SDS011;27822;44.430;10.790;2022-07-23T12:55:59;6.72;;;4.60;;
42158;SDS011;27822;44.430;10.790;2022-07-23T12:58:25;12.82;;;5.35;;
42158;SDS011;27822;44.430;10.790;2022-07-23T13:00:51;11.40;;;5.05;;
42158;SDS011;27822;44.430;10.790;2022-07-23T13:06:03;14.35;;;5.15;;
42158;SDS011;27822;44.430;10.790;2022-07-23T13:08:31;8.47;;;4.60;;
42158;SDS011;27822;44.430;10.790;2022-07-23T13:10:58;10.63;;;5.40;;
42158;SDS011;27822;44.430;10.790;2022-07-23T13:13:26;11.48;;;4.88;;
42158;SDS011;27822;44.430;10.790;2022-07-23T13:15:54;13.05;;;5.68;;
42158;SDS011;27822;44.430;10.790;2022-07-23T13:18:21;9.52;;;4.82;;
42158;SDS011;27822;44.430;10.790;2022-07-23T13:20:48;12.40;;;4.88;;
42158;SDS011;27822;44.430;10.790;2022-07-23T13:23:15;9.45;;;4.88;;
42158;SDS011;27822;44.430;10.790;2022-07-23T13:25:42;7.13;;;4.30;;
42158;SDS011;27822;44.430;10.790;2022-07-23T13:28:08;9.73;;;4.60;;
42158;SDS011;27822;44.430;10.790;2022-07-23T13:30:34;9.48;;;5.03;;
42158;SDS011;27822;44.430;10.790;2022-07-23T13:33:01;13.02;;;5.07;;
42158;SDS011;27822;44.430;10.790;2022-07-23T13:35:28;10.57;;;5.00;;
42158;SDS011;27822;44.430;10.790;2022-07-23T13:37:54;8.70;;;4.50;;
42158;SDS011;27822;44.430;10.790;2022-07-23T13:40:20;6.70;;;4.88;;
42158;SDS011;27822;44.430;10.790;2022-07-23T13:42:47;7.43;;;4.78;;
42158;SDS011;27822;44.430;10.790;2022-07-23T13:45:13;9.13;;;4.90;;
42158;SDS011;27822;44.430;10.790;2022-07-23T13:47:39;10.13;;;4.57;;
42158;SDS011;27822;44.430;10.790;2022-07-23T13:50:06;10.65;;;4.97;;
42158;SDS011;27822;44.430;10.790;2022-07-23T13:52:32;8.13;;;4.57;;
42158;SDS011;27822;44.430;10.790;2022-07-23T13:55:00;7.85;;;4.63;;
42158;SDS011;27822;44.430;10.790;2022-07-23T13:57:26;6.65;;;4.78;;
42158;SDS011;27822;44.430;10.790;2022-07-23T13:59:52;6.50;;;4.90;;
42158;SDS011;27822;44.430;10.790;2022-07-23T14:02:18;9.27;;;5.55;;
42158;SDS011;27822;44.430;10.790;2022-07-23T14:04:44;11.45;;;5.03;;
42158;SDS011;27822;44.430;10.790;2022-07-23T14:07:10;9.25;;;4.88;;
42158;SDS011;27822;44.430;10.790;2022-07-23T14:09:36;10.23;;;4.57;;
42158;SDS011;27822;44.430;10.790;2022-07-23T14:12:03;18.15;;;5.10;;
42158;SDS011;27822;44.430;10.790;2022-07-23T14:14:29;14.05;;;5.40;;
42158;SDS011;27822;44.430;10.790;2022-07-23T14:16:56;8.45;;;5.28;;
42158;SDS011;27822;44.430;10.790;2022-07-23T14:19:22;6.65;;;4.70;;
42158;SDS011;27822;44.430;10.790;2022-07-23T14:21:48;7.45;;;5.13;;
42158;SDS011;27822;44.430;10.790;2022-07-23T14:24:14;8.88;;;4.68;;
42158;SDS011;27822;44.430;10.790;2022-07-23T14:26:41;10.35;;;4.70;;
42158;SDS011;27822;44.430;10.790;2022-07-23T14:29:07;14.02;;;4.70;;
42158;SDS011;27822;44.430;10.790;2022-07-23T14:31:33;9.50;;;5.00;;
42158;SDS011;27822;44.430;10.790;2022-07-23T14:33:59;7.25;;;4.50;;
42158;SDS011;27822;44.430;10.790;2022-07-23T14:36:25;12.93;;;4.68;;
42158;SDS011;27822;44.430;10.790;2022-07-23T14:38:51;7.03;;;4.00;;
42158;SDS011;27822;44.430;10.790;2022-07-23T14:41:18;5.35;;;3.92;;
42158;SDS011;27822;44.430;10.790;2022-07-23T14:43:47;8.32;;;4.68;;
42158;SDS011;27822;44.430;10.790;2022-07-23T14:46:14;7.00;;;4.07;;
42158;SDS011;27822;44.430;10.790;2022-07-23T14:48:40;12.05;;;4.05;;
42158;SDS011;27822;44.430;10.790;2022-07-23T14:51:06;9.27;;;4.63;;
42158;SDS011;27822;44.430;10.790;2022-07-23T14:53:32;4.15;;;3.75;;
42158;SDS011;27822;44.430;10.790;2022-07-23T14:55:58;10.13;;;4.15;;
42158;SDS011;27822;44.430;10.790;2022-07-23T14:58:24;8.82;;;4.50;;
42158;SDS011;27822;44.430;10.790;2022-07-23T15:00:50;9.07;;;4.65;;
42158;SDS011;27822;44.430;10.790;2022-07-23T15:03:16;8.90;;;4.05;;
42158;SDS011;27822;44.430;10.790;2022-07-23T15:05:42;7.53;;;4.28;;
42158;SDS011;27822;44.430;10.790;2022-07-23T15:08:08;7.95;;;4.25;;
42158;SDS011;27822;44.430;10.790;2022-07-23T15:10:34;7.53;;;3.55;;
42158;SDS011;27822;44.430;10.790;2022-07-23T15:13:00;10.13;;;3.85;;
42158;SDS011;27822;44.430;10.790;2022-07-23T15:15:26;11.43;;;3.65;;
42158;SDS011;27822;44.430;10.790;2022-07-23T15:17:52;10.63;;;4.10;;
42158;SDS011;27822;44.430;10.790;2022-07-23T15:20:18;10.80;;;4.25;;
42158;SDS011;27822;44.430;10.790;2022-07-23T15:22:44;10.60;;;3.88;;
42158;SDS011;27822;44.430;10.790;2022-07-23T15:25:12;8.52;;;3.85;;
42158;SDS011;27822;44.430;10.790;2022-07-23T15:27:39;8.70;;;4.03;;
42158;SDS011;27822;44.430;10.790;2022-07-23T15:30:05;11.60;;;3.97;;